sensor_id;sensor_type;location;lat;lon;timestamp;P1;durP1;ratioP1;P2;durP2;ratioP2
37895;SDS011;23733;53.254;10.430;2023-02-01T00:02:04;15.73;;;3.47;;
37895;SDS011;23733;53.254;10.430;2023-02-01T00:04:30;23.43;;;4.40;;
37895;SDS011;23733;53.254;10.430;2023-02-01T00:06:56;22.87;;;3.80;;
37895;SDS011;23733;53.254;10.430;2023-02-01T00:09:23;19.53;;;4.03;;
37895;SDS011;23733;53.254;10.430;2023-02-01T00:11:49;24.33;;;4.00;;
37895;SDS011;23733;53.254;10.430;2023-02-01T00:14:15;15.87;;;3.30;;
37895;SDS011;23733;53.254;10.430;2023-02-01T00:16:42;27.90;;;4.60;;
37895;SDS011;23733;53.254;10.430;2023-02-01T00:19:12;20.67;;;3.87;;
37895;SDS011;23733;53.254;10.430;2023-02-01T00:21:39;16.20;;;3.63;;
37895;SDS011;23733;53.254;10.430;2023-02-01T00:24:06;16.97;;;3.67;;
37895;SDS011;23733;53.254;10.430;2023-02-01T00:26:36;22.60;;;4.63;;
37895;SDS011;23733;53.254;10.430;2023-02-01T00:29:04;19.03;;;3.90;;
37895;SDS011;23733;53.254;10.430;2023-02-01T00:31:31;20.10;;;4.10;;
37895;SDS011;23733;53.254;10.430;2023-02-01T00:33:57;23.20;;;4.40;;
37895;SDS011;23733;53.254;10.430;2023-02-01T00:36:23;29.57;;;4.80;;
37895;SDS011;23733;53.254;10.430;2023-02-01T00:38:50;25.17;;;4.27;;
37895;SDS011;23733;53.254;10.430;2023-02-01T00:41:17;29.00;;;4.57;;
37895;SDS011;23733;53.254;10.430;2023-02-01T00:43:44;19.17;;;3.30;;
37895;SDS011;23733;53.254;10.430;2023-02-01T00:46:11;24.57;;;3.90;;
37895;SDS011;23733;53.254;10.430;2023-02-01T00:48:37;27.20;;;5.00;;
37895;SDS011;23733;53.254;10.430;2023-02-01T00:51:05;19.33;;;3.87;;
37895;SDS011;23733;53.254;10.430;2023-02-01T00:53:32;21.63;;;4.63;;
37895;SDS011;23733;53.254;10.430;2023-02-01T00:55:58;23.23;;;4.20;;
37895;SDS011;23733;53.254;10.430;2023-02-01T00:58:25;22.87;;;4.43;;
37895;SDS011;23733;53.254;10.430;2023-02-01T01:01:11;23.83;;;4.50;;
37895;SDS011;23733;53.254;10.430;2023-02-01T01:03:42;21.23;;;4.03;;
37895;SDS011;23733;53.254;10.430;2023-02-01T01:06:10;26.97;;;4.23;;
37895;SDS011;23733;53.254;10.430;2023-02-01T01:08:37;16.17;;;4.13;;
37895;SDS011;23733;53.254;10.430;2023-02-01T01:11:04;26.40;;;4.27;;
37895;SDS011;23733;53.254;10.430;2023-02-01T01:13:31;19.23;;;4.03;;
37895;SDS011;23733;53.254;10.430;2023-02-01T01:15:59;22.53;;;3.90;;
37895;SDS011;23733;53.254;10.430;2023-02-01T01:18:28;23.57;;;3.70;;
37895;SDS011;23733;53.254;10.430;2023-02-01T01:20:54;20.50;;;3.87;;
37895;SDS011;23733;53.254;10.430;2023-02-01T01:23:21;24.10;;;4.77;;
37895;SDS011;23733;53.254;10.430;2023-02-01T01:25:47;25.80;;;4.63;;
37895;SDS011;23733;53.254;10.430;2023-02-01T01:28:13;31.03;;;5.10;;
37895;SDS011;23733;53.254;10.430;2023-02-01T01:30:40;24.43;;;4.47;;
37895;SDS011;23733;53.254;10.430;2023-02-01T01:33:06;23.87;;;4.70;;
37895;SDS011;23733;53.254;10.430;2023-02-01T01:35:32;22.93;;;5.17;;
37895;SDS011;23733;53.254;10.430;2023-02-01T01:37:59;21.53;;;4.50;;
37895;SDS011;23733;53.254;10.430;2023-02-01T01:40:26;26.93;;;4.33;;
37895;SDS011;23733;53.254;10.430;2023-02-01T01:42:53;22.10;;;4.30;;
37895;SDS011;23733;53.254;10.430;2023-02-01T01:45:22;25.90;;;4.53;;
37895;SDS011;23733;53.254;10.430;2023-02-01T01:47:50;24.83;;;5.27;;
37895;SDS011;23733;53.254;10.430;2023-02-01T01:50:19;25.23;;;5.07;;
37895;SDS011;23733;53.254;10.430;2023-02-01T01:52:47;26.00;;;3.90;;
37895;SDS011;23733;53.254;10.430;2023-02-01T01:55:15;32.50;;;5.50;;
37895;SDS011;23733;53.254;10.430;2023-02-01T01:57:43;24.17;;;4.23;;
37895;SDS011;23733;53.254;10.430;2023-02-01T02:00:12;25.80;;;4.13;;
37895;SDS011;23733;53.254;10.430;2023-02-01T02:02:39;30.23;;;4.70;;
37895;SDS011;23733;53.254;10.430;2023-02-01T02:05:07;28.27;;;4.83;;
37895;SDS011;23733;53.254;10.430;2023-02-01T02:07:35;27.07;;;5.07;;
37895;SDS011;23733;53.254;10.430;2023-02-01T02:10:04;28.73;;;5.00;;
37895;SDS011;23733;53.254;10.430;2023-02-01T02:12:31;27.47;;;4.37;;
37895;SDS011;23733;53.254;10.430;2023-02-01T02:14:58;30.90;;;4.87;;
37895;SDS011;23733;53.254;10.430;2023-02-01T02:20:14;25.80;;;4.83;;
37895;SDS011;23733;53.254;10.430;2023-02-01T02:28:12;29.27;;;4.40;;
37895;SDS011;23733;53.254;10.430;2023-02-01T02:36:19;25.63;;;4.90;;
37895;SDS011;23733;53.254;10.430;2023-02-01T02:41:28;33.97;;;5.27;;
37895;SDS011;23733;53.254;10.430;2023-02-01T02:44:21;22.17;;;4.50;;
37895;SDS011;23733;53.254;10.430;2023-02-01T02:47:11;24.33;;;5.23;;
37895;SDS011;23733;53.254;10.430;2023-02-01T02:49:58;26.13;;;4.67;;
37895;SDS011;23733;53.254;10.430;2023-02-01T02:52:49;29.90;;;5.50;;
37895;SDS011;23733;53.254;10.430;2023-02-01T02:55:36;25.30;;;5.60;;
37895;SDS011;23733;53.254;10.430;2023-02-01T02:58:04;23.53;;;4.77;;
37895;SDS011;23733;53.254;10.430;2023-02-01T03:00:50;24.30;;;5.10;;
37895;SDS011;23733;53.254;10.430;2023-02-01T03:03:37;26.40;;;4.90;;
37895;SDS011;23733;53.254;10.430;2023-02-01T03:06:22;34.77;;;5.63;;
37895;SDS011;23733;53.254;10.430;2023-02-01T03:08:49;26.53;;;4.90;;
37895;SDS011;23733;53.254;10.430;2023-02-01T03:11:19;27.93;;;5.20;;
37895;SDS011;23733;53.254;10.430;2023-02-01T03:13:56;24.07;;;5.00;;
37895;SDS011;23733;53.254;10.430;2023-02-01T03:21:21;25.73;;;4.73;;
37895;SDS011;23733;53.254;10.430;2023-02-01T03:23:49;32.63;;;5.83;;
37895;SDS011;23733;53.254;10.430;2023-02-01T03:26:17;26.50;;;4.50;;
37895;SDS011;23733;53.254;10.430;2023-02-01T03:28:47;25.83;;;4.67;;
37895;SDS011;23733;53.254;10.430;2023-02-01T03:31:14;24.47;;;4.87;;
37895;SDS011;23733;53.254;10.430;2023-02-01T03:33:41;22.17;;;4.37;;
37895;SDS011;23733;53.254;10.430;2023-02-01T03:36:14;29.27;;;5.20;;
37895;SDS011;23733;53.254;10.430;2023-02-01T03:43:53;18.50;;;3.10;;
37895;SDS011;23733;53.254;10.430;2023-02-01T03:46:22;18.03;;;3.70;;
37895;SDS011;23733;53.254;10.430;2023-02-01T03:48:51;21.53;;;3.37;;
37895;SDS011;23733;53.254;10.430;2023-02-01T03:51:19;19.03;;;3.87;;
37895;SDS011;23733;53.254;10.430;2023-02-01T03:53:46;23.13;;;3.77;;
37895;SDS011;23733;53.254;10.430;2023-02-01T03:56:14;20.87;;;4.33;;
37895;SDS011;23733;53.254;10.430;2023-02-01T03:58:41;17.10;;;3.67;;
37895;SDS011;23733;53.254;10.430;2023-02-01T04:01:23;20.33;;;3.90;;
37895;SDS011;23733;53.254;10.430;2023-02-01T04:03:49;13.63;;;2.20;;
37895;SDS011;23733;53.254;10.430;2023-02-01T04:06:16;6.57;;;1.67;;
37895;SDS011;23733;53.254;10.430;2023-02-01T04:08:43;4.27;;;1.10;;
37895;SDS011;23733;53.254;10.430;2023-02-01T04:11:09;9.73;;;1.60;;
37895;SDS011;23733;53.254;10.430;2023-02-01T04:13:35;4.90;;;1.40;;
37895;SDS011;23733;53.254;10.430;2023-02-01T04:16:02;7.43;;;1.60;;
37895;SDS011;23733;53.254;10.430;2023-02-01T04:18:28;5.90;;;1.47;;
37895;SDS011;23733;53.254;10.430;2023-02-01T04:20:55;3.47;;;0.90;;
37895;SDS011;23733;53.254;10.430;2023-02-01T04:23:21;7.17;;;1.10;;
37895;SDS011;23733;53.254;10.430;2023-02-01T04:25:47;4.43;;;1.37;;
37895;SDS011;23733;53.254;10.430;2023-02-01T04:28:14;9.17;;;1.57;;
37895;SDS011;23733;53.254;10.430;2023-02-01T04:30:40;8.17;;;1.73;;
37895;SDS011;23733;53.254;10.430;2023-02-01T04:33:06;3.90;;;1.30;;
37895;SDS011;23733;53.254;10.430;2023-02-01T04:35:33;3.47;;;1.10;;
37895;SDS011;23733;53.254;10.430;2023-02-01T04:38:00;4.70;;;1.30;;
37895;SDS011;23733;53.254;10.430;2023-02-01T04:40:26;5.20;;;1.30;;
37895;SDS011;23733;53.254;10.430;2023-02-01T04:42:52;3.33;;;0.90;;
37895;SDS011;23733;53.254;10.430;2023-02-01T04:45:19;4.67;;;1.10;;
37895;SDS011;23733;53.254;10.430;2023-02-01T04:47:45;3.80;;;1.20;;
37895;SDS011;23733;53.254;10.430;2023-02-01T04:50:13;5.47;;;1.30;;
37895;SDS011;23733;53.254;10.430;2023-02-01T04:52:39;5.60;;;2.27;;
37895;SDS011;23733;53.254;10.430;2023-02-01T04:55:06;7.97;;;1.87;;
37895;SDS011;23733;53.254;10.430;2023-02-01T04:57:33;7.73;;;1.60;;
37895;SDS011;23733;53.254;10.430;2023-02-01T04:59:59;7.80;;;1.70;;
37895;SDS011;23733;53.254;10.430;2023-02-01T05:02:25;5.37;;;1.77;;
37895;SDS011;23733;53.254;10.430;2023-02-01T05:04:52;8.17;;;2.10;;
37895;SDS011;23733;53.254;10.430;2023-02-01T05:07:19;7.20;;;1.90;;
37895;SDS011;23733;53.254;10.430;2023-02-01T05:09:45;3.77;;;1.30;;
37895;SDS011;23733;53.254;10.430;2023-02-01T05:12:12;7.83;;;1.70;;
37895;SDS011;23733;53.254;10.430;2023-02-01T05:14:56;8.47;;;1.30;;
37895;SDS011;23733;53.254;10.430;2023-02-01T05:17:23;5.23;;;1.20;;
37895;SDS011;23733;53.254;10.430;2023-02-01T05:19:49;6.03;;;1.50;;
37895;SDS011;23733;53.254;10.430;2023-02-01T05:22:15;5.47;;;1.27;;
37895;SDS011;23733;53.254;10.430;2023-02-01T05:24:42;5.40;;;1.70;;
37895;SDS011;23733;53.254;10.430;2023-02-01T05:27:08;3.57;;;1.47;;
37895;SDS011;23733;53.254;10.430;2023-02-01T05:29:34;3.53;;;1.17;;
37895;SDS011;23733;53.254;10.430;2023-02-01T05:32:00;6.20;;;1.50;;
37895;SDS011;23733;53.254;10.430;2023-02-01T05:34:27;4.63;;;1.10;;
37895;SDS011;23733;53.254;10.430;2023-02-01T05:36:53;5.57;;;1.77;;
37895;SDS011;23733;53.254;10.430;2023-02-01T05:39:19;4.50;;;1.47;;
37895;SDS011;23733;53.254;10.430;2023-02-01T05:41:46;7.50;;;1.60;;
37895;SDS011;23733;53.254;10.430;2023-02-01T05:44:12;6.00;;;1.50;;
37895;SDS011;23733;53.254;10.430;2023-02-01T05:46:38;5.33;;;1.97;;
37895;SDS011;23733;53.254;10.430;2023-02-01T05:49:04;6.67;;;1.30;;
37895;SDS011;23733;53.254;10.430;2023-02-01T05:51:31;3.13;;;1.20;;
37895;SDS011;23733;53.254;10.430;2023-02-01T05:53:58;4.07;;;1.10;;
37895;SDS011;23733;53.254;10.430;2023-02-01T05:56:24;2.93;;;1.00;;
37895;SDS011;23733;53.254;10.430;2023-02-01T05:58:51;3.00;;;1.00;;
37895;SDS011;23733;53.254;10.430;2023-02-01T06:01:17;1.67;;;0.80;;
37895;SDS011;23733;53.254;10.430;2023-02-01T06:03:43;4.27;;;0.80;;
37895;SDS011;23733;53.254;10.430;2023-02-01T06:06:10;2.20;;;0.80;;
37895;SDS011;23733;53.254;10.430;2023-02-01T06:08:36;1.53;;;0.93;;
37895;SDS011;23733;53.254;10.430;2023-02-01T06:11:05;3.70;;;1.30;;
37895;SDS011;23733;53.254;10.430;2023-02-01T06:13:32;2.57;;;1.27;;
37895;SDS011;23733;53.254;10.430;2023-02-01T06:15:58;2.07;;;1.10;;
37895;SDS011;23733;53.254;10.430;2023-02-01T06:18:25;3.43;;;1.57;;
37895;SDS011;23733;53.254;10.430;2023-02-01T06:20:55;2.13;;;1.00;;
37895;SDS011;23733;53.254;10.430;2023-02-01T06:23:21;2.50;;;1.07;;
37895;SDS011;23733;53.254;10.430;2023-02-01T06:25:50;2.27;;;1.00;;
37895;SDS011;23733;53.254;10.430;2023-02-01T06:28:16;2.57;;;0.97;;
37895;SDS011;23733;53.254;10.430;2023-02-01T06:30:42;1.93;;;0.93;;
37895;SDS011;23733;53.254;10.430;2023-02-01T06:33:14;2.83;;;0.87;;
37895;SDS011;23733;53.254;10.430;2023-02-01T06:35:43;1.70;;;0.87;;
37895;SDS011;23733;53.254;10.430;2023-02-01T06:38:11;0.80;;;0.77;;
37895;SDS011;23733;53.254;10.430;2023-02-01T06:40:37;3.33;;;1.00;;
37895;SDS011;23733;53.254;10.430;2023-02-01T06:43:04;2.20;;;0.90;;
37895;SDS011;23733;53.254;10.430;2023-02-01T06:45:31;1.97;;;1.00;;
37895;SDS011;23733;53.254;10.430;2023-02-01T06:48:00;3.17;;;1.23;;
37895;SDS011;23733;53.254;10.430;2023-02-01T06:50:27;1.90;;;0.83;;
37895;SDS011;23733;53.254;10.430;2023-02-01T06:52:53;2.37;;;0.87;;
37895;SDS011;23733;53.254;10.430;2023-02-01T06:55:19;2.03;;;1.00;;
37895;SDS011;23733;53.254;10.430;2023-02-01T06:57:46;5.07;;;1.13;;
37895;SDS011;23733;53.254;10.430;2023-02-01T07:00:12;2.80;;;1.20;;
37895;SDS011;23733;53.254;10.430;2023-02-01T07:02:39;2.10;;;0.90;;
37895;SDS011;23733;53.254;10.430;2023-02-01T07:05:05;1.63;;;0.80;;
37895;SDS011;23733;53.254;10.430;2023-02-01T07:07:31;2.77;;;0.90;;
37895;SDS011;23733;53.254;10.430;2023-02-01T07:09:57;3.47;;;1.00;;
37895;SDS011;23733;53.254;10.430;2023-02-01T07:12:24;4.93;;;1.07;;
37895;SDS011;23733;53.254;10.430;2023-02-01T07:14:50;5.13;;;1.33;;
37895;SDS011;23733;53.254;10.430;2023-02-01T07:17:16;5.10;;;1.47;;
37895;SDS011;23733;53.254;10.430;2023-02-01T07:19:43;3.20;;;1.20;;
37895;SDS011;23733;53.254;10.430;2023-02-01T07:22:09;3.07;;;1.00;;
37895;SDS011;23733;53.254;10.430;2023-02-01T07:24:35;5.67;;;1.30;;
37895;SDS011;23733;53.254;10.430;2023-02-01T07:27:01;4.70;;;1.20;;
37895;SDS011;23733;53.254;10.430;2023-02-01T07:29:28;3.57;;;1.20;;
37895;SDS011;23733;53.254;10.430;2023-02-01T07:31:54;6.07;;;1.30;;
37895;SDS011;23733;53.254;10.430;2023-02-01T07:34:20;6.03;;;1.67;;
37895;SDS011;23733;53.254;10.430;2023-02-01T07:36:47;7.97;;;1.80;;
37895;SDS011;23733;53.254;10.430;2023-02-01T07:39:13;10.93;;;1.90;;
37895;SDS011;23733;53.254;10.430;2023-02-01T07:41:39;5.73;;;1.53;;
37895;SDS011;23733;53.254;10.430;2023-02-01T07:44:05;6.03;;;1.83;;
37895;SDS011;23733;53.254;10.430;2023-02-01T07:46:32;7.10;;;2.03;;
37895;SDS011;23733;53.254;10.430;2023-02-01T07:48:58;9.97;;;2.30;;
37895;SDS011;23733;53.254;10.430;2023-02-01T07:51:24;9.83;;;2.23;;
37895;SDS011;23733;53.254;10.430;2023-02-01T07:53:51;11.70;;;2.43;;
37895;SDS011;23733;53.254;10.430;2023-02-01T07:56:18;14.23;;;2.50;;
37895;SDS011;23733;53.254;10.430;2023-02-01T07:58:48;13.30;;;3.00;;
37895;SDS011;23733;53.254;10.430;2023-02-01T08:01:15;11.73;;;2.40;;
37895;SDS011;23733;53.254;10.430;2023-02-01T08:03:45;18.73;;;2.50;;
37895;SDS011;23733;53.254;10.430;2023-02-01T08:06:12;20.70;;;2.97;;
37895;SDS011;23733;53.254;10.430;2023-02-01T08:08:38;23.60;;;3.67;;
37895;SDS011;23733;53.254;10.430;2023-02-01T08:11:05;12.70;;;2.97;;
37895;SDS011;23733;53.254;10.430;2023-02-01T08:13:34;16.47;;;2.97;;
37895;SDS011;23733;53.254;10.430;2023-02-01T08:16:01;21.57;;;4.30;;
37895;SDS011;23733;53.254;10.430;2023-02-01T08:18:28;15.87;;;3.20;;
37895;SDS011;23733;53.254;10.430;2023-02-01T08:20:55;15.50;;;3.43;;
37895;SDS011;23733;53.254;10.430;2023-02-01T08:23:22;27.10;;;3.90;;
37895;SDS011;23733;53.254;10.430;2023-02-01T08:25:49;16.17;;;3.87;;
37895;SDS011;23733;53.254;10.430;2023-02-01T08:28:15;22.20;;;3.57;;
37895;SDS011;23733;53.254;10.430;2023-02-01T08:30:42;16.60;;;3.03;;
37895;SDS011;23733;53.254;10.430;2023-02-01T08:33:08;13.20;;;2.73;;
37895;SDS011;23733;53.254;10.430;2023-02-01T08:35:34;16.33;;;3.67;;
37895;SDS011;23733;53.254;10.430;2023-02-01T08:38:01;19.17;;;3.17;;
37895;SDS011;23733;53.254;10.430;2023-02-01T08:40:28;24.00;;;3.00;;
37895;SDS011;23733;53.254;10.430;2023-02-01T08:42:54;16.47;;;3.23;;
37895;SDS011;23733;53.254;10.430;2023-02-01T08:45:22;20.27;;;3.00;;
37895;SDS011;23733;53.254;10.430;2023-02-01T08:47:49;20.47;;;4.00;;
37895;SDS011;23733;53.254;10.430;2023-02-01T08:50:16;15.80;;;3.13;;
37895;SDS011;23733;53.254;10.430;2023-02-01T08:52:42;24.00;;;3.60;;
37895;SDS011;23733;53.254;10.430;2023-02-01T08:55:09;13.37;;;3.33;;
37895;SDS011;23733;53.254;10.430;2023-02-01T08:57:36;25.67;;;4.07;;
37895;SDS011;23733;53.254;10.430;2023-02-01T09:00:03;24.03;;;3.90;;
37895;SDS011;23733;53.254;10.430;2023-02-01T09:02:30;23.40;;;4.20;;
37895;SDS011;23733;53.254;10.430;2023-02-01T09:04:56;28.03;;;4.63;;
37895;SDS011;23733;53.254;10.430;2023-02-01T09:07:22;21.30;;;3.57;;
37895;SDS011;23733;53.254;10.430;2023-02-01T09:09:49;24.00;;;3.80;;
37895;SDS011;23733;53.254;10.430;2023-02-01T09:12:15;17.07;;;3.27;;
37895;SDS011;23733;53.254;10.430;2023-02-01T09:14:41;19.93;;;3.60;;
37895;SDS011;23733;53.254;10.430;2023-02-01T09:17:08;18.23;;;3.30;;
37895;SDS011;23733;53.254;10.430;2023-02-01T09:19:34;16.33;;;3.67;;
37895;SDS011;23733;53.254;10.430;2023-02-01T09:22:00;16.67;;;3.03;;
37895;SDS011;23733;53.254;10.430;2023-02-01T09:24:26;17.93;;;2.93;;
37895;SDS011;23733;53.254;10.430;2023-02-01T09:26:53;16.93;;;3.13;;
37895;SDS011;23733;53.254;10.430;2023-02-01T09:29:19;17.33;;;3.00;;
37895;SDS011;23733;53.254;10.430;2023-02-01T09:31:45;20.83;;;3.57;;
37895;SDS011;23733;53.254;10.430;2023-02-01T09:34:12;17.93;;;3.70;;
37895;SDS011;23733;53.254;10.430;2023-02-01T09:36:38;22.57;;;3.73;;
37895;SDS011;23733;53.254;10.430;2023-02-01T09:39:04;14.10;;;2.97;;
37895;SDS011;23733;53.254;10.430;2023-02-01T09:41:51;22.30;;;3.60;;
37895;SDS011;23733;53.254;10.430;2023-02-01T09:44:28;21.77;;;3.37;;
37895;SDS011;23733;53.254;10.430;2023-02-01T09:46:57;21.57;;;3.07;;
37895;SDS011;23733;53.254;10.430;2023-02-01T09:49:33;21.67;;;3.20;;
37895;SDS011;23733;53.254;10.430;2023-02-01T09:52:02;20.17;;;4.03;;
37895;SDS011;23733;53.254;10.430;2023-02-01T09:54:40;22.67;;;4.30;;
37895;SDS011;23733;53.254;10.430;2023-02-01T09:57:08;16.53;;;2.93;;
37895;SDS011;23733;53.254;10.430;2023-02-01T09:59:46;17.93;;;3.23;;
37895;SDS011;23733;53.254;10.430;2023-02-01T10:02:16;18.07;;;3.50;;
37895;SDS011;23733;53.254;10.430;2023-02-01T10:04:43;19.77;;;3.27;;
37895;SDS011;23733;53.254;10.430;2023-02-01T10:09:49;17.67;;;3.27;;
37895;SDS011;23733;53.254;10.430;2023-02-01T10:17:31;17.70;;;3.60;;
37895;SDS011;23733;53.254;10.430;2023-02-01T10:22:39;21.60;;;3.63;;
37895;SDS011;23733;53.254;10.430;2023-02-01T10:25:08;23.80;;;5.00;;
37895;SDS011;23733;53.254;10.430;2023-02-01T10:27:38;21.97;;;3.60;;
37895;SDS011;23733;53.254;10.430;2023-02-01T10:30:29;22.87;;;3.43;;
37895;SDS011;23733;53.254;10.430;2023-02-01T10:32:55;23.43;;;3.90;;
37895;SDS011;23733;53.254;10.430;2023-02-01T10:35:24;18.50;;;3.50;;
37895;SDS011;23733;53.254;10.430;2023-02-01T10:37:52;22.33;;;3.67;;
37895;SDS011;23733;53.254;10.430;2023-02-01T10:40:28;21.77;;;3.97;;
37895;SDS011;23733;53.254;10.430;2023-02-01T10:42:56;25.70;;;4.47;;
37895;SDS011;23733;53.254;10.430;2023-02-01T10:45:24;16.40;;;3.70;;
37895;SDS011;23733;53.254;10.430;2023-02-01T10:47:52;15.37;;;3.63;;
37895;SDS011;23733;53.254;10.430;2023-02-01T10:53:08;16.87;;;3.33;;
37895;SDS011;23733;53.254;10.430;2023-02-01T10:55:40;17.37;;;3.03;;
37895;SDS011;23733;53.254;10.430;2023-02-01T10:58:13;19.83;;;3.57;;
37895;SDS011;23733;53.254;10.430;2023-02-01T11:00:43;14.73;;;2.60;;
37895;SDS011;23733;53.254;10.430;2023-02-01T11:05:55;18.27;;;3.57;;
37895;SDS011;23733;53.254;10.430;2023-02-01T11:08:21;18.67;;;4.27;;
37895;SDS011;23733;53.254;10.430;2023-02-01T11:10:49;13.90;;;2.93;;
37895;SDS011;23733;53.254;10.430;2023-02-01T11:13:24;18.40;;;2.93;;
37895;SDS011;23733;53.254;10.430;2023-02-01T11:15:57;14.73;;;3.03;;
37895;SDS011;23733;53.254;10.430;2023-02-01T11:18:27;18.30;;;3.77;;
37895;SDS011;23733;53.254;10.430;2023-02-01T11:20:53;18.40;;;3.17;;
37895;SDS011;23733;53.254;10.430;2023-02-01T11:23:24;17.47;;;3.67;;
37895;SDS011;23733;53.254;10.430;2023-02-01T11:28:17;17.30;;;3.10;;
37895;SDS011;23733;53.254;10.430;2023-02-01T11:30:45;15.60;;;3.33;;
37895;SDS011;23733;53.254;10.430;2023-02-01T11:33:17;21.73;;;4.63;;
37895;SDS011;23733;53.254;10.430;2023-02-01T11:35:44;16.33;;;3.30;;
37895;SDS011;23733;53.254;10.430;2023-02-01T11:40:50;14.57;;;3.03;;
37895;SDS011;23733;53.254;10.430;2023-02-01T11:43:26;19.23;;;3.07;;
37895;SDS011;23733;53.254;10.430;2023-02-01T11:46:00;18.00;;;3.77;;
37895;SDS011;23733;53.254;10.430;2023-02-01T11:48:27;13.93;;;3.53;;
37895;SDS011;23733;53.254;10.430;2023-02-01T11:51:19;15.57;;;2.80;;
37895;SDS011;23733;53.254;10.430;2023-02-01T11:54:06;14.17;;;3.10;;
37895;SDS011;23733;53.254;10.430;2023-02-01T11:56:30;13.00;;;3.03;;
37895;SDS011;23733;53.254;10.430;2023-02-01T12:02:28;16.87;;;3.10;;
37895;SDS011;23733;53.254;10.430;2023-02-01T12:04:36;19.63;;;3.07;;
37895;SDS011;23733;53.254;10.430;2023-02-01T12:07:29;13.23;;;2.70;;
37895;SDS011;23733;53.254;10.430;2023-02-01T12:09:59;14.90;;;2.87;;
37895;SDS011;23733;53.254;10.430;2023-02-01T12:12:39;10.50;;;3.00;;
37895;SDS011;23733;53.254;10.430;2023-02-01T12:17:38;11.33;;;3.07;;
37895;SDS011;23733;53.254;10.430;2023-02-01T12:25:51;10.30;;;2.30;;
37895;SDS011;23733;53.254;10.430;2023-02-01T12:31:12;5.43;;;1.50;;
37895;SDS011;23733;53.254;10.430;2023-02-01T12:33:51;5.87;;;1.40;;
37895;SDS011;23733;53.254;10.430;2023-02-01T12:36:25;5.57;;;1.20;;
37895;SDS011;23733;53.254;10.430;2023-02-01T12:39:02;3.77;;;1.23;;
37895;SDS011;23733;53.254;10.430;2023-02-01T12:46:52;2.40;;;0.90;;
37895;SDS011;23733;53.254;10.430;2023-02-01T12:49:22;3.43;;;1.00;;
37895;SDS011;23733;53.254;10.430;2023-02-01T12:51:52;1.83;;;0.80;;
37895;SDS011;23733;53.254;10.430;2023-02-01T12:54:21;2.57;;;0.80;;
37895;SDS011;23733;53.254;10.430;2023-02-01T12:56:56;2.30;;;1.00;;
37895;SDS011;23733;53.254;10.430;2023-02-01T12:59:27;1.23;;;0.80;;
37895;SDS011;23733;53.254;10.430;2023-02-01T13:01:56;3.03;;;1.37;;
37895;SDS011;23733;53.254;10.430;2023-02-01T13:04:27;1.57;;;0.80;;
37895;SDS011;23733;53.254;10.430;2023-02-01T13:07:05;2.23;;;0.80;;
37895;SDS011;23733;53.254;10.430;2023-02-01T13:09:37;2.00;;;0.90;;
37895;SDS011;23733;53.254;10.430;2023-02-01T13:12:09;0.90;;;0.80;;
37895;SDS011;23733;53.254;10.430;2023-02-01T13:14:39;1.17;;;0.70;;
37895;SDS011;23733;53.254;10.430;2023-02-01T13:17:10;1.30;;;0.70;;
37895;SDS011;23733;53.254;10.430;2023-02-01T13:19:52;1.43;;;0.70;;
37895;SDS011;23733;53.254;10.430;2023-02-01T13:22:21;1.70;;;0.87;;
37895;SDS011;23733;53.254;10.430;2023-02-01T13:24:52;1.60;;;0.70;;
37895;SDS011;23733;53.254;10.430;2023-02-01T13:27:19;2.20;;;0.70;;
37895;SDS011;23733;53.254;10.430;2023-02-01T13:30:29;0.83;;;0.60;;
37895;SDS011;23733;53.254;10.430;2023-02-01T13:32:40;0.50;;;0.50;;
37895;SDS011;23733;53.254;10.430;2023-02-01T13:40:41;0.67;;;0.40;;
37895;SDS011;23733;53.254;10.430;2023-02-01T13:43:42;2.50;;;0.50;;
37895;SDS011;23733;53.254;10.430;2023-02-01T13:46:07;0.80;;;0.40;;
37895;SDS011;23733;53.254;10.430;2023-02-01T13:48:45;2.30;;;0.70;;
37895;SDS011;23733;53.254;10.430;2023-02-01T13:51:13;0.70;;;0.50;;
37895;SDS011;23733;53.254;10.430;2023-02-01T13:53:44;0.83;;;0.60;;
37895;SDS011;23733;53.254;10.430;2023-02-01T13:56:13;1.13;;;0.57;;
37895;SDS011;23733;53.254;10.430;2023-02-01T13:58:40;1.30;;;0.60;;
37895;SDS011;23733;53.254;10.430;2023-02-01T14:03:59;0.87;;;0.67;;
37895;SDS011;23733;53.254;10.430;2023-02-01T14:17:28;2.60;;;0.70;;
37895;SDS011;23733;53.254;10.430;2023-02-01T14:19:32;7.17;;;0.87;;
37895;SDS011;23733;53.254;10.430;2023-02-01T14:21:59;3.10;;;0.63;;
37895;SDS011;23733;53.254;10.430;2023-02-01T14:24:27;4.90;;;0.83;;
37895;SDS011;23733;53.254;10.430;2023-02-01T14:26:53;3.90;;;0.80;;
37895;SDS011;23733;53.254;10.430;2023-02-01T14:29:42;1.27;;;0.80;;
37895;SDS011;23733;53.254;10.430;2023-02-01T14:32:21;4.00;;;1.00;;
37895;SDS011;23733;53.254;10.430;2023-02-01T14:34:51;5.00;;;1.10;;
37895;SDS011;23733;53.254;10.430;2023-02-01T14:39:52;3.93;;;1.00;;
37895;SDS011;23733;53.254;10.430;2023-02-01T14:44:47;7.13;;;1.10;;
37895;SDS011;23733;53.254;10.430;2023-02-01T14:49:54;3.53;;;1.10;;
37895;SDS011;23733;53.254;10.430;2023-02-01T14:52:22;9.90;;;1.40;;
37895;SDS011;23733;53.254;10.430;2023-02-01T14:54:52;7.90;;;1.50;;
37895;SDS011;23733;53.254;10.430;2023-02-01T14:57:19;4.87;;;1.70;;
37895;SDS011;23733;53.254;10.430;2023-02-01T14:59:46;6.97;;;1.63;;
37895;SDS011;23733;53.254;10.430;2023-02-01T15:02:17;9.23;;;1.40;;
37895;SDS011;23733;53.254;10.430;2023-02-01T15:04:44;5.57;;;1.47;;
37895;SDS011;23733;53.254;10.430;2023-02-01T15:07:11;6.17;;;1.53;;
37895;SDS011;23733;53.254;10.430;2023-02-01T15:09:42;6.40;;;2.07;;
37895;SDS011;23733;53.254;10.430;2023-02-01T15:14:42;4.07;;;1.17;;
37895;SDS011;23733;53.254;10.430;2023-02-01T15:17:21;2.37;;;0.90;;
37895;SDS011;23733;53.254;10.430;2023-02-01T15:22:54;2.87;;;0.70;;
37895;SDS011;23733;53.254;10.430;2023-02-01T15:25:21;2.60;;;0.70;;
37895;SDS011;23733;53.254;10.430;2023-02-01T15:27:48;3.23;;;0.93;;
37895;SDS011;23733;53.254;10.430;2023-02-01T15:30:17;6.10;;;0.93;;
37895;SDS011;23733;53.254;10.430;2023-02-01T15:32:44;4.47;;;1.10;;
37895;SDS011;23733;53.254;10.430;2023-02-01T15:38:17;2.70;;;0.90;;
37895;SDS011;23733;53.254;10.430;2023-02-01T15:40:55;7.27;;;1.43;;
37895;SDS011;23733;53.254;10.430;2023-02-01T15:43:22;7.87;;;1.10;;
37895;SDS011;23733;53.254;10.430;2023-02-01T15:45:49;5.47;;;1.33;;
37895;SDS011;23733;53.254;10.430;2023-02-01T15:48:25;5.23;;;1.40;;
37895;SDS011;23733;53.254;10.430;2023-02-01T15:50:52;6.73;;;1.70;;
37895;SDS011;23733;53.254;10.430;2023-02-01T15:53:21;7.63;;;1.50;;
37895;SDS011;23733;53.254;10.430;2023-02-01T15:55:54;10.67;;;1.70;;
37895;SDS011;23733;53.254;10.430;2023-02-01T15:58:21;6.13;;;1.60;;
37895;SDS011;23733;53.254;10.430;2023-02-01T16:00:50;8.13;;;1.80;;
37895;SDS011;23733;53.254;10.430;2023-02-01T16:06:03;12.47;;;1.83;;
37895;SDS011;23733;53.254;10.430;2023-02-01T16:08:30;7.53;;;1.93;;
37895;SDS011;23733;53.254;10.430;2023-02-01T16:13:35;11.63;;;2.27;;
37895;SDS011;23733;53.254;10.430;2023-02-01T16:16:02;13.23;;;2.67;;
37895;SDS011;23733;53.254;10.430;2023-02-01T16:18:33;13.67;;;2.33;;
37895;SDS011;23733;53.254;10.430;2023-02-01T16:20:59;14.00;;;3.13;;
37895;SDS011;23733;53.254;10.430;2023-02-01T16:23:25;9.63;;;2.53;;
37895;SDS011;23733;53.254;10.430;2023-02-01T16:25:52;10.30;;;2.23;;
37895;SDS011;23733;53.254;10.430;2023-02-01T16:28:18;9.10;;;2.10;;